createdAt,value
2019-01-18T00:05:28.002Z,28.53
2019-01-18T00:11:23.008Z,32.33
2019-01-18T00:17:17.987Z,26.82
2019-01-18T00:23:13.003Z,28.05
2019-01-18T00:29:07.992Z,26.07
2019-01-18T00:35:02.984Z,27.37
2019-01-18T00:40:58.040Z,28.95
2019-01-18T00:46:53.036Z,27.59
2019-01-18T00:52:48.022Z,25.85
2019-01-18T00:58:43.026Z,27.61
2019-01-18T01:04:38.011Z,23.93
2019-01-18T01:10:33.090Z,21.11
2019-01-18T01:16:28.045Z,23.26
2019-01-18T01:22:23.025Z,20.61
2019-01-18T01:28:18.083Z,21.89
2019-01-18T01:34:13.030Z,23.75
2019-01-18T01:40:08.024Z,22.1
2019-01-18T01:46:03.061Z,20.26
2019-01-18T01:51:58.039Z,22.1
2019-01-18T01:57:53.049Z,24.34
2019-01-18T02:03:48.054Z,18.44
2019-01-18T02:09:43.057Z,13
2019-01-18T02:15:38.093Z,14.42
2019-01-18T02:21:33.076Z,7.84
2019-01-18T02:27:28.103Z,8.75
2019-01-18T02:33:23.079Z,6.95
2019-01-18T02:39:18.064Z,10.06
2019-01-18T02:45:13.074Z,7.67
2019-01-18T02:51:08.127Z,8.66
2019-01-18T02:57:03.101Z,5.78
2019-01-18T03:02:58.070Z,6.4
2019-01-18T03:08:53.070Z,5.84
2019-01-18T03:14:48.092Z,5.24
2019-01-18T03:20:43.083Z,4.69
2019-01-18T03:26:38.108Z,4.47
2019-01-18T03:32:33.107Z,4.54
2019-01-18T03:38:28.119Z,5.03
2019-01-18T03:44:23.114Z,5.73
2019-01-18T03:50:18.155Z,8.99
2019-01-18T03:56:13.124Z,6.6
2019-01-18T04:02:08.138Z,4.72
2019-01-18T04:08:03.154Z,9.35
2019-01-18T04:13:58.157Z,4.43
2019-01-18T04:19:53.111Z,8.3
2019-01-18T04:25:48.147Z,6.2
2019-01-18T04:31:43.138Z,5.78
2019-01-18T04:37:38.136Z,5.87
2019-01-18T04:43:33.132Z,7.21
2019-01-18T04:49:28.258Z,4.73
2019-01-18T04:55:23.128Z,6.45
2019-01-18T05:01:18.162Z,10
2019-01-18T05:07:13.163Z,9.11
2019-01-18T05:13:08.137Z,8.27
2019-01-18T05:19:03.207Z,7.35
2019-01-18T05:24:58.182Z,9.54
2019-01-18T05:30:53.169Z,12.08
2019-01-18T05:36:48.189Z,8.1
2019-01-18T05:42:43.169Z,17.57
2019-01-18T05:48:38.189Z,10.19
2019-01-18T05:54:33.206Z,8.98
2019-01-18T06:00:28.209Z,12.93
2019-01-18T06:06:23.240Z,8.68
2019-01-18T06:12:18.183Z,9.42
2019-01-18T06:18:13.211Z,12.29
2019-01-18T06:24:08.240Z,10.35
2019-01-18T06:30:03.210Z,10.74
2019-01-18T06:35:58.251Z,7.81
2019-01-18T06:41:53.209Z,7.97
2019-01-18T06:47:48.220Z,11.07
2019-01-18T06:53:43.232Z,12.12
2019-01-18T06:59:38.280Z,10.44
2019-01-18T07:05:33.201Z,11.82
2019-01-18T07:11:28.241Z,10.33
2019-01-18T07:17:23.244Z,10.84
2019-01-18T07:23:18.240Z,10.87
2019-01-18T07:29:13.306Z,10.7
2019-01-18T07:35:08.516Z,15.78
2019-01-18T07:41:03.256Z,14.73
2019-01-18T07:46:58.255Z,12.71
2019-01-18T07:52:53.231Z,16.73
2019-01-18T07:58:48.256Z,15.76
2019-01-18T08:04:43.264Z,18.32
2019-01-18T08:10:38.270Z,21.65
2019-01-18T08:16:33.272Z,24.18
2019-01-18T08:22:28.286Z,23.88
2019-01-18T08:28:23.249Z,21.06
2019-01-18T08:34:18.267Z,21.01
2019-01-18T08:40:13.286Z,24.51
2019-01-18T08:46:08.264Z,16.01
2019-01-18T08:52:03.314Z,19.15
2019-01-18T08:57:58.309Z,34.85
2019-01-18T09:03:53.278Z,48.38
2019-01-18T09:09:48.352Z,56.88
2019-01-18T09:15:43.325Z,40.02
2019-01-18T09:21:38.393Z,37.61
2019-01-18T09:27:33.317Z,35.25
2019-01-18T09:33:28.328Z,36.73
2019-01-18T09:39:23.293Z,39.28
2019-01-18T09:45:18.325Z,37.48
2019-01-18T09:51:13.323Z,32.7
2019-01-18T09:57:08.311Z,27.41
2019-01-18T10:03:03.332Z,33.35
2019-01-18T10:08:58.330Z,35.56
2019-01-18T10:14:53.329Z,35.06
2019-01-18T10:20:48.331Z,40.23
2019-01-18T10:26:43.336Z,31.82
2019-01-18T10:32:38.321Z,24.15
2019-01-18T10:38:33.336Z,19.28
2019-01-18T10:44:28.332Z,14.56
2019-01-18T10:50:23.367Z,16.8
2019-01-18T10:56:18.364Z,10.98
2019-01-18T11:02:13.344Z,9.63
2019-01-18T11:08:08.365Z,8.91
2019-01-18T11:14:03.388Z,11.75
2019-01-18T11:19:58.382Z,10.77
2019-01-18T11:25:53.372Z,14.31
2019-01-18T11:31:48.466Z,5.32
2019-01-18T11:37:43.415Z,14.19
2019-01-18T11:43:38.385Z,11.46
2019-01-18T11:49:33.406Z,12.6
2019-01-18T11:55:28.394Z,9.15
2019-01-18T12:01:23.394Z,10.65
2019-01-18T12:07:18.385Z,7.08
2019-01-18T12:13:13.424Z,9.17
2019-01-18T12:19:08.452Z,9.45
2019-01-18T12:25:03.463Z,7.26
2019-01-18T12:30:58.459Z,9.12
2019-01-18T12:36:58.790Z,9.26
2019-01-18T12:42:48.485Z,6.52
2019-01-18T12:48:43.412Z,9.67
2019-01-18T12:54:38.415Z,8.89
2019-01-18T13:00:33.493Z,6.34
2019-01-18T13:06:28.438Z,5.96
2019-01-18T13:12:23.433Z,5.68
2019-01-18T13:18:18.431Z,7.43
2019-01-18T13:24:13.443Z,9.17
2019-01-18T13:30:08.458Z,5.69
2019-01-18T13:36:03.446Z,4.14
2019-01-18T13:41:59.868Z,7.37
2019-01-18T13:47:53.472Z,5.62
2019-01-18T13:53:48.477Z,4.9
2019-01-18T13:59:43.465Z,5.46
2019-01-18T14:05:38.474Z,4.93
2019-01-18T14:11:33.465Z,5.54
2019-01-18T14:17:28.482Z,4.97
2019-01-18T14:23:23.487Z,7.49
2019-01-18T14:29:18.479Z,9.14
2019-01-18T14:35:13.503Z,5.96
2019-01-18T14:41:08.557Z,6.63
2019-01-18T14:47:03.525Z,3.88
2019-01-18T14:52:58.489Z,5.64
2019-01-18T14:58:53.515Z,5.83
2019-01-18T15:04:48.513Z,5.1
2019-01-18T15:10:43.538Z,12.45
2019-01-18T15:16:38.497Z,13.01
2019-01-18T15:22:33.513Z,13.36
2019-01-18T15:28:28.555Z,21.62
2019-01-18T15:34:23.556Z,18.7
2019-01-18T15:40:18.559Z,16.43
2019-01-18T15:46:13.517Z,14.17
2019-01-18T15:52:08.529Z,19.39
2019-01-18T15:58:03.563Z,13.42
2019-01-18T16:03:58.528Z,12.68
2019-01-18T16:09:53.556Z,27.41
2019-01-18T16:15:48.573Z,30.15
2019-01-18T16:21:43.556Z,29.45
2019-01-18T16:27:38.553Z,28.43
2019-01-18T16:33:33.647Z,25.84
2019-01-18T16:39:28.539Z,24.85
2019-01-18T16:45:23.578Z,22.1
2019-01-18T16:51:18.571Z,21.44
2019-01-18T16:57:13.564Z,23.44
2019-01-18T17:03:08.561Z,26.18
2019-01-18T17:09:03.611Z,20.75
2019-01-18T17:14:58.594Z,22.43
2019-01-18T17:20:53.607Z,22.9
2019-01-18T17:26:48.581Z,19.94
2019-01-18T17:32:43.629Z,18.81
2019-01-18T17:38:38.577Z,16.75
2019-01-18T17:44:33.646Z,25.65
2019-01-18T17:50:28.603Z,23.8
2019-01-18T17:56:23.624Z,14.76
2019-01-18T18:02:18.617Z,23.89
2019-01-18T18:08:13.606Z,15.03
2019-01-18T18:14:08.602Z,17.36
2019-01-18T18:20:03.601Z,11.19
2019-01-18T18:25:58.654Z,20.92
2019-01-18T18:31:53.614Z,14.04
2019-01-18T18:37:48.678Z,13.3
2019-01-18T18:43:43.630Z,13.23
2019-01-18T18:49:38.661Z,12.48
2019-01-18T18:55:33.636Z,13.73
2019-01-18T19:01:28.636Z,13.28
2019-01-18T19:07:23.655Z,14.76
2019-01-18T19:13:18.635Z,8.41
2019-01-18T19:19:13.697Z,12.4
2019-01-18T19:25:08.746Z,10.04
2019-01-18T19:31:03.639Z,14.87
2019-01-18T19:36:58.675Z,14.95
2019-01-18T19:42:53.675Z,16.79
2019-01-18T19:48:48.659Z,17.83
2019-01-18T19:54:43.671Z,15.66
2019-01-18T20:00:38.672Z,10.71
2019-01-18T20:06:33.669Z,13.2
2019-01-18T20:12:28.673Z,12.6
2019-01-18T20:18:23.716Z,10.61
2019-01-18T20:24:18.698Z,9.41
2019-01-18T20:30:13.668Z,8.89
2019-01-18T20:36:08.700Z,9.98
2019-01-18T20:42:03.691Z,10.31
2019-01-18T20:47:58.724Z,11.65
2019-01-18T20:53:53.716Z,13.28
2019-01-18T20:59:48.729Z,20.01
2019-01-18T21:05:43.713Z,19.87
2019-01-18T21:11:38.739Z,29.48
2019-01-18T21:17:33.757Z,28.72
2019-01-18T21:23:28.701Z,26.87
2019-01-18T21:29:23.731Z,21.01
2019-01-18T21:35:18.722Z,23.04
2019-01-18T21:41:13.744Z,16.74
2019-01-18T21:47:08.706Z,18.83
2019-01-18T21:53:03.771Z,20.92
2019-01-18T21:58:58.715Z,17.49
2019-01-18T22:04:53.754Z,30
2019-01-18T22:10:48.785Z,32.66
2019-01-18T22:16:43.740Z,39.28
2019-01-18T22:22:38.728Z,32.85
2019-01-18T22:28:33.753Z,35.98
2019-01-18T22:34:28.875Z,27.1
2019-01-18T22:40:23.767Z,25.77
2019-01-18T22:46:18.770Z,24.23
2019-01-18T22:52:13.759Z,34.3
2019-01-18T22:58:08.753Z,24.42
2019-01-18T23:04:03.761Z,22.04
2019-01-18T23:09:58.776Z,27.34
2019-01-18T23:15:53.849Z,33.34
2019-01-18T23:21:48.776Z,22.83
2019-01-18T23:27:43.829Z,23.93
2019-01-18T23:33:38.827Z,18.58
2019-01-18T23:39:33.787Z,13.23
2019-01-18T23:45:28.783Z,16.48
2019-01-18T23:51:23.870Z,12.48
2019-01-18T23:57:18.828Z,12.98
